EGFF Airport Information

Runway Information
Runway 12 Length 7848 ft width 151 ft
Elevation 205 ft Threshold 797 ft Heading 117
Runway 30 Length 7848 ft Width 151 ft
Elevation 213 ft Threshold 551 ft Heading 297
Airport Frequencies
Type APP Name Cardiff Ap Frequency 119.15 MHZ
Type APP Name Cardiff Ra Frequency 125.85 MHZ
Type ATIS Name ATIS Frequency 132.475 MHZ
Type Radar Name Frequency 133.6 MHZ
Type TWR Name Cardiff Tw Frequency 133.1 MHZ
Airport Navaids
Airport Weather Information & NOTAM
ADDS - METARS form results

(0108 UTC 17 June 2019)
Data provider http://aviationweather.gov/metar/data/
 
METAR text: EGFF 170050Z AUTO 22009KT 9999 BKN016 OVC024 14/11 Q1016
Conditions at: EGFF (CARDIFF-WALES AR, GB) observed 0050 UTC 17 June 2019
Temperature: 14.0°C (57°F)
Dewpoint: 11.0°C (52°F) [RH = 82%]
Pressure (altimeter): 30.00 inches Hg (1016.0 mb)
Winds: from the SW (220 degrees) at 10 MPH (9 knots; 4.6 m/s)
Visibility: 6 or more miles (10+ km)
Ceiling: 1600 feet AGL
Clouds: broken clouds at 1600 feet AGL
overcast cloud deck at 2400 feet AGL
Weather: no significant weather observed at this time

METAR text: EGFF 170020Z AUTO 23006KT 200V260 9999 BKN018 OVC025 14/12 Q1016
Conditions at: EGFF (CARDIFF-WALES AR, GB) observed 0020 UTC 17 June 2019
Temperature: 14.0°C (57°F)
Dewpoint: 12.0°C (54°F) [RH = 88%]
Pressure (altimeter): 30.00 inches Hg (1016.0 mb)
Winds: from the SW (230 degrees) at 7 MPH (6 knots; 3.1 m/s)
Visibility: 6 or more miles (10+ km)
Ceiling: 1800 feet AGL
Clouds: broken clouds at 1800 feet AGL
overcast cloud deck at 2500 feet AGL
Weather: no significant weather observed at this time

Forecast for: EGFF (CARDIFF-WALES AR, GB)
Text: TAF EGFF 162257Z 1700/1724 20009KT 9999 SCT020
Forecast period: 0000 UTC 17 June 2019 to 0000 UTC 18 June 2019
Forecast type: FROM: standard forecast or significant change
Winds: from the SSW (200 degrees) at 10 MPH (9 knots; 4.6 m/s)
Visibility: 6 or more miles 10+ km)
Ceiling: at least 12,000 feet AGL
Clouds: scattered clouds at 2000 feet AGL
Weather: no significant weather forecast for this period
Text: PROB30
Forecast period: 0000 to 0900 UTC 17 June 2019
Forecast type: TEMPORARY: The following changes expected for less than half the time period
Visibility: 5 miles (8 km)
Ceiling: 1400 feet AGL
Clouds: broken clouds at 1400 feet AGL
Weather: -SHRA  (light rain showers)
Text: TEMPO 1700/1709 8000 -SHRA BKN014
Forecast period: 0900 to 1600 UTC 17 June 2019
Forecast type: TEMPORARY: The following changes expected for less than half the time period
Winds: from the SW (220 degrees) at 17 MPH (15 knots; 7.7 m/s)
gusting to 29 MPH (25 knots; 12.9 m/s)
Visibility: 5 miles (8 km)
Ceiling: unknown
Clouds: missing
Weather: -SHRA  (light rain showers)